createdAt,value
2023-02-09T00:01:21.666Z,-2.33
2023-02-09T00:03:49.981Z,-2.30
2023-02-09T00:06:19.664Z,-2.33
2023-02-09T00:08:47.991Z,-2.34
2023-02-09T00:11:45.410Z,-2.36
2023-02-09T00:14:13.704Z,-2.38
2023-02-09T00:16:41.844Z,-2.37
2023-02-09T00:19:09.668Z,-2.39
2023-02-09T00:21:37.675Z,-2.40
2023-02-09T00:24:05.947Z,-2.44
2023-02-09T00:26:33.868Z,-2.45
2023-02-09T00:29:01.665Z,-2.47
2023-02-09T00:31:29.644Z,-2.49
2023-02-09T00:33:57.561Z,-2.52
2023-02-09T00:36:25.386Z,-2.53
2023-02-09T00:38:53.291Z,-2.53
2023-02-09T00:41:41.002Z,-2.55
2023-02-09T00:44:08.873Z,-2.58
2023-02-09T00:46:36.908Z,-2.56
2023-02-09T00:49:05.170Z,-2.57
2023-02-09T00:51:33.169Z,-2.60
2023-02-09T00:54:00.980Z,-2.60
2023-02-09T00:56:28.925Z,-2.63
2023-02-09T00:58:56.846Z,-2.65
2023-02-09T01:01:24.678Z,-2.67
2023-02-09T01:03:52.559Z,-2.67
2023-02-09T01:06:20.341Z,-2.73
2023-02-09T01:08:48.134Z,-2.78
2023-02-09T01:11:16.562Z,-2.81
2023-02-09T01:13:44.869Z,-2.77
2023-02-09T01:16:14.709Z,-2.78
2023-02-09T01:18:42.808Z,-2.80
2023-02-09T01:21:14.971Z,-2.80
2023-02-09T01:23:42.910Z,-2.81
2023-02-09T01:26:11.420Z,-2.85
2023-02-09T01:28:39.254Z,-2.89
2023-02-09T01:31:07.584Z,-2.86
2023-02-09T01:33:35.540Z,-2.88
2023-02-09T01:36:06.549Z,-2.92
2023-02-09T01:38:34.339Z,-2.95
2023-02-09T01:41:02.133Z,-2.99
2023-02-09T01:43:29.924Z,-3.01
2023-02-09T01:45:57.838Z,-3.05
2023-02-09T01:48:29.757Z,-3.02
2023-02-09T01:50:59.289Z,-2.99
2023-02-09T01:53:27.605Z,-3.01
2023-02-09T01:56:01.914Z,-3.04
2023-02-09T01:58:29.803Z,-3.06
2023-02-09T02:00:59.893Z,-3.08
2023-02-09T02:03:28.259Z,-3.13
2023-02-09T02:06:04.173Z,-3.12
2023-02-09T02:08:40.649Z,-3.13
2023-02-09T02:11:08.762Z,-3.13
2023-02-09T02:13:36.678Z,-3.15
2023-02-09T02:16:16.866Z,-3.13
2023-02-09T02:19:07.047Z,-3.15
2023-02-09T02:21:43.839Z,-3.13
2023-02-09T02:24:20.868Z,-3.15
2023-02-09T02:27:05.798Z,-3.20
2023-02-09T02:29:48.850Z,-3.28
2023-02-09T02:32:28.848Z,-3.32
2023-02-09T02:35:03.229Z,-3.37
2023-02-09T02:37:40.043Z,-3.43
2023-02-09T02:40:25.734Z,-3.40
2023-02-09T02:42:54.014Z,-3.37
2023-02-09T02:45:39.805Z,-3.39
2023-02-09T02:48:22.305Z,-3.42
2023-02-09T02:51:12.851Z,-3.38
2023-02-09T02:53:42.696Z,-3.36
2023-02-09T02:56:25.664Z,-3.39
2023-02-09T02:58:53.602Z,-3.41
2023-02-09T03:01:24.208Z,-3.45
2023-02-09T03:03:52.059Z,-3.47
2023-02-09T03:06:19.969Z,-3.51
2023-02-09T03:08:55.455Z,-3.53
2023-02-09T03:11:24.765Z,-3.54
2023-02-09T03:14:13.255Z,-3.49
2023-02-09T03:19:52.620Z,-3.46
2023-02-09T03:22:40.228Z,-3.51
2023-02-09T03:25:13.260Z,-3.54
2023-02-09T03:27:44.277Z,-3.55
2023-02-09T03:30:13.810Z,-3.58
2023-02-09T03:32:42.224Z,-3.59
2023-02-09T03:35:11.034Z,-3.61
2023-02-09T03:37:38.787Z,-3.62
2023-02-09T03:40:07.031Z,-3.62
2023-02-09T03:42:34.878Z,-3.61
2023-02-09T03:45:02.769Z,-3.61
2023-02-09T03:47:32.058Z,-3.61
2023-02-09T03:50:00.543Z,-3.65
2023-02-09T03:52:28.366Z,-3.64
2023-02-09T03:54:56.298Z,-3.67
2023-02-09T03:57:24.027Z,-3.65
2023-02-09T03:59:51.858Z,-3.61
2023-02-09T04:02:19.924Z,-3.61
2023-02-09T04:04:47.746Z,-3.60
2023-02-09T04:07:15.808Z,-3.65
2023-02-09T04:09:43.685Z,-3.63
2023-02-09T04:12:11.554Z,-3.62
2023-02-09T04:14:39.482Z,-3.65
2023-02-09T04:17:07.459Z,-3.70
2023-02-09T04:19:35.468Z,-3.69
2023-02-09T04:22:03.456Z,-3.73
2023-02-09T04:24:34.464Z,-3.85
2023-02-09T04:27:02.300Z,-3.96
2023-02-09T04:29:30.132Z,-4.02
2023-02-09T04:31:58.104Z,-4.06
2023-02-09T04:34:26.072Z,-4.11
2023-02-09T04:36:53.963Z,-4.11
2023-02-09T04:39:21.851Z,-4.13
2023-02-09T04:41:49.704Z,-4.14
2023-02-09T04:44:17.589Z,-4.15
2023-02-09T04:46:45.819Z,-4.14
2023-02-09T04:49:14.051Z,-4.13
2023-02-09T04:51:42.035Z,-4.11
2023-02-09T04:54:12.950Z,-4.06
2023-02-09T04:56:40.803Z,-4.06
2023-02-09T04:59:28.219Z,-4.08
2023-02-09T05:01:56.161Z,-4.06
2023-02-09T05:04:24.052Z,-4.01
2023-02-09T05:06:51.876Z,-3.98
2023-02-09T05:09:19.746Z,-3.99
2023-02-09T05:11:47.554Z,-3.98
2023-02-09T05:14:15.482Z,-3.95
2023-02-09T05:16:43.348Z,-3.90
2023-02-09T05:19:12.255Z,-3.89
2023-02-09T05:21:40.070Z,-3.85
2023-02-09T05:24:08.172Z,-3.83
2023-02-09T05:26:36.168Z,-3.84
2023-02-09T05:29:04.469Z,-3.85
2023-02-09T05:31:32.361Z,-3.86
2023-02-09T05:34:02.150Z,-3.88
2023-02-09T05:36:29.946Z,-3.91
2023-02-09T05:38:57.807Z,-3.90
2023-02-09T05:41:44.191Z,-3.91
2023-02-09T05:44:12.071Z,-3.96
2023-02-09T05:46:42.669Z,-3.94
2023-02-09T05:49:10.550Z,-3.93
2023-02-09T05:51:38.490Z,-3.91
2023-02-09T05:54:06.796Z,-3.90
2023-02-09T05:56:34.704Z,-3.86
2023-02-09T05:59:04.354Z,-3.85
2023-02-09T06:01:37.605Z,-3.85
2023-02-09T06:04:05.576Z,-3.85
2023-02-09T06:06:33.524Z,-3.84
2023-02-09T06:09:07.228Z,-3.81
2023-02-09T06:11:35.084Z,-3.84
2023-02-09T06:14:02.960Z,-3.89
2023-02-09T06:16:30.880Z,-3.85
2023-02-09T06:18:58.617Z,-3.85
2023-02-09T06:21:26.539Z,-3.84
2023-02-09T06:23:54.307Z,-3.83
2023-02-09T06:26:22.225Z,-3.87
2023-02-09T06:28:50.008Z,-3.84
2023-02-09T06:31:21.134Z,-3.83
2023-02-09T06:33:49.012Z,-3.85
2023-02-09T06:36:21.928Z,-3.83
2023-02-09T06:38:54.414Z,-3.84
2023-02-09T06:41:27.095Z,-3.83
2023-02-09T06:43:55.212Z,-3.84
2023-02-09T06:46:23.158Z,-3.86
2023-02-09T06:48:51.349Z,-3.88
2023-02-09T06:51:19.202Z,-3.89
2023-02-09T06:53:50.426Z,-3.89
2023-02-09T06:56:18.380Z,-3.89
2023-02-09T06:58:46.373Z,-3.91
2023-02-09T07:01:16.873Z,-3.85
2023-02-09T07:03:45.150Z,-3.67
2023-02-09T07:06:20.037Z,-3.54
2023-02-09T07:08:48.045Z,-3.45
2023-02-09T07:11:17.526Z,-3.46
2023-02-09T07:13:45.462Z,-3.45
2023-02-09T07:16:13.319Z,-3.46
2023-02-09T07:18:41.343Z,-3.40
2023-02-09T07:21:19.781Z,-3.38
2023-02-09T07:23:48.416Z,-3.42
2023-02-09T07:26:17.625Z,-3.41
2023-02-09T07:28:45.600Z,-3.37
2023-02-09T07:31:14.822Z,-3.35
2023-02-09T07:33:42.714Z,-3.34
2023-02-09T07:36:12.005Z,-3.31
2023-02-09T07:38:40.139Z,-3.30
2023-02-09T07:41:08.577Z,-3.28
2023-02-09T07:43:36.583Z,-3.24
2023-02-09T07:46:05.700Z,-3.19
2023-02-09T07:48:34.134Z,-3.22
2023-02-09T07:51:02.097Z,-3.20
2023-02-09T07:53:30.195Z,-3.11
2023-02-09T07:55:58.030Z,-3.04
2023-02-09T07:58:25.883Z,-2.93
2023-02-09T08:00:53.746Z,-2.79
2023-02-09T08:03:22.684Z,-2.62
2023-02-09T08:06:08.794Z,-2.46
2023-02-09T08:08:36.604Z,-2.26
2023-02-09T08:11:05.533Z,-2.07
2023-02-09T08:13:36.828Z,-1.85
2023-02-09T08:16:06.149Z,-1.68
2023-02-09T08:18:37.273Z,-1.39
2023-02-09T08:21:06.355Z,-1.21
2023-02-09T08:23:35.652Z,-1.01
2023-02-09T08:26:07.121Z,-0.91
2023-02-09T08:28:43.606Z,-0.78
2023-02-09T08:31:16.871Z,-0.60
2023-02-09T08:33:44.987Z,-0.45
2023-02-09T08:36:13.258Z,-0.35
2023-02-09T08:38:41.290Z,-0.22
2023-02-09T08:41:10.196Z,-0.22
2023-02-09T08:43:38.213Z,-0.13
2023-02-09T08:46:13.325Z,-0.07
2023-02-09T08:48:42.414Z,0.04
2023-02-09T08:51:10.808Z,0.12
2023-02-09T08:53:38.560Z,0.36
2023-02-09T08:56:06.776Z,0.47
2023-02-09T08:58:34.695Z,0.65
2023-02-09T09:01:02.747Z,0.81
2023-02-09T09:03:32.788Z,0.95
2023-02-09T09:06:01.555Z,1.04
2023-02-09T09:08:29.599Z,1.13
2023-02-09T09:10:57.475Z,1.34
2023-02-09T09:13:25.878Z,1.56
2023-02-09T09:15:53.949Z,1.65
2023-02-09T09:18:21.920Z,1.75
2023-02-09T09:20:50.035Z,1.87
2023-02-09T09:23:17.883Z,1.99
2023-02-09T09:25:46.101Z,1.96
2023-02-09T09:28:14.321Z,2.07
2023-02-09T09:30:42.204Z,2.05
2023-02-09T09:33:10.141Z,2.26
2023-02-09T09:35:38.004Z,2.41
2023-02-09T09:38:05.980Z,2.62
2023-02-09T09:40:35.515Z,2.71
2023-02-09T09:43:09.032Z,2.84
2023-02-09T09:45:37.555Z,3.02
2023-02-09T09:48:05.581Z,3.12
2023-02-09T09:50:37.491Z,3.23
2023-02-09T09:53:19.468Z,3.37
2023-02-09T09:55:47.701Z,3.49
2023-02-09T09:58:18.796Z,3.60
2023-02-09T10:00:46.874Z,3.79
2023-02-09T10:03:16.388Z,3.81
2023-02-09T10:05:44.938Z,3.63
2023-02-09T10:08:26.946Z,3.62
2023-02-09T10:14:06.557Z,3.66
2023-02-09T10:16:35.660Z,3.58
2023-02-09T10:19:05.176Z,3.57
2023-02-09T10:21:35.268Z,3.61
2023-02-09T10:24:03.042Z,3.65
2023-02-09T10:26:35.273Z,3.68
2023-02-09T10:29:27.318Z,3.78
2023-02-09T10:32:05.616Z,3.66
2023-02-09T10:34:45.775Z,3.65
2023-02-09T10:37:36.703Z,3.73
2023-02-09T10:40:16.277Z,3.63
2023-02-09T10:43:05.268Z,3.49
2023-02-09T10:45:43.297Z,3.58
2023-02-09T10:48:14.052Z,3.55
2023-02-09T10:50:51.794Z,3.60
2023-02-09T10:53:25.220Z,3.53
2023-02-09T10:55:56.174Z,3.79
2023-02-09T10:58:29.160Z,3.85
2023-02-09T11:01:10.129Z,3.87
2023-02-09T11:03:38.771Z,4.03
2023-02-09T11:06:24.537Z,4.20
2023-02-09T11:08:56.442Z,4.32
2023-02-09T11:11:33.964Z,4.53
2023-02-09T11:14:07.235Z,4.77
2023-02-09T11:17:04.411Z,4.70
2023-02-09T11:19:57.195Z,4.49
2023-02-09T11:22:50.151Z,4.72
2023-02-09T11:25:21.339Z,4.87
2023-02-09T11:28:17.000Z,5.07
2023-02-09T11:30:48.861Z,5.13
2023-02-09T11:33:16.843Z,5.18
2023-02-09T11:36:12.375Z,5.26
2023-02-09T11:38:45.446Z,5.48
2023-02-09T11:41:35.106Z,5.64
2023-02-09T11:44:03.404Z,5.80
2023-02-09T11:46:34.641Z,6.07
2023-02-09T11:49:06.078Z,6.26
2023-02-09T11:51:34.990Z,6.25
2023-02-09T11:54:09.129Z,6.26
2023-02-09T11:56:49.526Z,6.21
2023-02-09T11:59:38.270Z,6.33
2023-02-09T12:02:26.432Z,6.55
2023-02-09T12:05:02.092Z,6.72
2023-02-09T12:07:50.156Z,6.86
2023-02-09T12:10:29.080Z,7.15
2023-02-09T12:12:56.834Z,7.00
2023-02-09T12:15:27.595Z,6.88
2023-02-09T12:18:07.069Z,7.08
2023-02-09T12:20:37.560Z,6.89
2023-02-09T12:23:08.773Z,6.76
2023-02-09T12:25:51.898Z,6.75
2023-02-09T12:28:28.908Z,6.65
2023-02-09T12:31:00.730Z,6.60
2023-02-09T12:33:29.444Z,6.53
2023-02-09T12:36:09.254Z,6.49
2023-02-09T12:38:56.495Z,6.37
2023-02-09T12:41:25.582Z,6.44
2023-02-09T12:44:11.776Z,6.51
2023-02-09T12:46:45.552Z,6.43
2023-02-09T12:49:13.399Z,6.43
2023-02-09T12:51:56.132Z,6.35
2023-02-09T12:54:45.459Z,6.28
2023-02-09T12:57:16.131Z,6.20
2023-02-09T13:00:01.799Z,6.26
2023-02-09T13:02:43.421Z,6.27
2023-02-09T13:05:24.447Z,6.24
2023-02-09T13:07:56.621Z,6.15
2023-02-09T13:10:26.671Z,6.07
2023-02-09T13:13:12.873Z,6.00
2023-02-09T13:15:53.116Z,5.80
2023-02-09T13:18:26.812Z,5.70
2023-02-09T13:21:06.224Z,5.65
2023-02-09T13:23:43.178Z,5.68
2023-02-09T13:26:22.677Z,5.56
2023-02-09T13:28:50.600Z,5.61
2023-02-09T13:31:25.186Z,5.50
2023-02-09T13:33:54.604Z,5.43
2023-02-09T13:36:46.877Z,5.53
2023-02-09T13:39:25.126Z,5.52
2023-02-09T13:41:54.808Z,5.33
2023-02-09T13:44:24.012Z,5.42
2023-02-09T13:46:53.330Z,5.40
2023-02-09T13:49:23.131Z,5.48
2023-02-09T13:52:16.830Z,5.64
2023-02-09T13:54:44.837Z,5.69
2023-02-09T13:57:32.248Z,5.59
2023-02-09T14:00:30.218Z,5.55
2023-02-09T14:03:13.198Z,5.62
2023-02-09T14:05:44.368Z,5.53
2023-02-09T14:08:13.631Z,5.45
2023-02-09T14:10:42.793Z,5.31
2023-02-09T14:13:36.428Z,5.13
2023-02-09T14:16:10.245Z,5.25
2023-02-09T14:18:46.116Z,5.41
2023-02-09T14:21:16.768Z,5.49
2023-02-09T14:23:46.485Z,5.47
2023-02-09T14:26:36.770Z,5.54
2023-02-09T14:29:15.169Z,5.49
2023-02-09T14:31:49.182Z,5.60
2023-02-09T14:34:39.645Z,5.59
2023-02-09T14:37:16.336Z,5.51
2023-02-09T14:40:23.097Z,5.65
2023-02-09T14:43:23.162Z,5.74
2023-02-09T14:45:59.781Z,5.67
2023-02-09T14:48:32.378Z,5.64
2023-02-09T14:51:11.877Z,5.57
2023-02-09T14:53:39.650Z,5.40
2023-02-09T14:56:07.670Z,5.25
2023-02-09T14:58:35.471Z,5.04
2023-02-09T15:01:03.595Z,5.03
2023-02-09T15:03:31.569Z,4.86
2023-02-09T15:06:00.649Z,4.77
2023-02-09T15:08:29.369Z,4.66
2023-02-09T15:11:01.770Z,4.58
2023-02-09T15:13:30.235Z,4.52
2023-02-09T15:15:58.159Z,4.49
2023-02-09T15:18:27.171Z,4.45
2023-02-09T15:20:55.036Z,4.48
2023-02-09T15:23:22.878Z,4.46
2023-02-09T15:25:50.599Z,4.43
2023-02-09T15:28:29.088Z,4.37
2023-02-09T15:30:57.582Z,4.29
2023-02-09T15:33:26.653Z,4.22
2023-02-09T15:35:54.591Z,4.20
2023-02-09T15:38:22.354Z,4.23
2023-02-09T15:41:09.563Z,4.23
2023-02-09T15:43:56.027Z,4.15
2023-02-09T15:46:42.242Z,4.07
2023-02-09T15:49:10.189Z,4.07
2023-02-09T15:51:38.923Z,4.03
2023-02-09T15:54:10.606Z,3.95
2023-02-09T15:56:38.549Z,3.91
2023-02-09T15:59:06.772Z,3.84
2023-02-09T16:01:35.579Z,3.84
2023-02-09T16:04:15.743Z,3.82
2023-02-09T16:06:50.015Z,3.80
2023-02-09T16:09:28.763Z,3.72
2023-02-09T16:11:56.699Z,3.66
2023-02-09T16:14:27.521Z,3.65
2023-02-09T16:16:55.409Z,3.64
2023-02-09T16:19:23.401Z,3.60
2023-02-09T16:21:52.954Z,3.58
2023-02-09T16:24:31.240Z,3.57
2023-02-09T16:27:00.867Z,3.51
2023-02-09T16:29:28.729Z,3.48
2023-02-09T16:31:56.775Z,3.48
2023-02-09T16:34:24.660Z,3.44
2023-02-09T16:36:52.436Z,3.41
2023-02-09T16:39:21.455Z,3.35
2023-02-09T16:41:51.027Z,3.33
2023-02-09T16:44:26.885Z,3.33
2023-02-09T16:46:55.683Z,3.28
2023-02-09T16:49:33.178Z,3.23
2023-02-09T16:52:06.948Z,3.15
2023-02-09T16:54:38.467Z,3.05
2023-02-09T16:57:06.406Z,2.96
2023-02-09T16:59:34.173Z,2.88
2023-02-09T17:02:03.339Z,2.77
2023-02-09T17:04:31.199Z,2.71
2023-02-09T17:06:59.025Z,2.67
2023-02-09T17:09:26.823Z,2.61
2023-02-09T17:11:54.674Z,2.56
2023-02-09T17:14:22.471Z,2.48
2023-02-09T17:16:51.101Z,2.40
2023-02-09T17:19:19.360Z,2.37
2023-02-09T17:21:47.212Z,2.31
2023-02-09T17:24:16.832Z,2.26
2023-02-09T17:26:44.813Z,2.19
2023-02-09T17:29:13.013Z,2.13
2023-02-09T17:31:52.938Z,2.07
2023-02-09T17:34:21.866Z,2.04
2023-02-09T17:36:49.713Z,1.96
2023-02-09T17:39:19.836Z,1.88
2023-02-09T17:41:49.651Z,1.82
2023-02-09T17:44:39.192Z,1.78
2023-02-09T17:47:14.018Z,1.69
2023-02-09T17:49:41.888Z,1.65
2023-02-09T17:52:18.123Z,1.61
2023-02-09T17:54:46.659Z,1.53
2023-02-09T17:57:15.703Z,1.49
2023-02-09T17:59:43.736Z,1.49
2023-02-09T18:02:21.641Z,1.49
2023-02-09T18:04:49.494Z,1.44
2023-02-09T18:07:21.365Z,1.33
2023-02-09T18:09:49.307Z,1.31
2023-02-09T18:12:21.620Z,1.29
2023-02-09T18:14:49.410Z,1.22
2023-02-09T18:17:17.757Z,1.21
2023-02-09T18:19:45.557Z,1.23
2023-02-09T18:22:15.171Z,1.18
2023-02-09T18:24:42.964Z,1.19
2023-02-09T18:27:14.794Z,1.13
2023-02-09T18:29:42.704Z,1.09
2023-02-09T18:32:16.062Z,1.03
2023-02-09T18:34:43.971Z,1.02
2023-02-09T18:37:11.752Z,0.96
2023-02-09T18:39:47.028Z,0.91
2023-02-09T18:42:16.093Z,0.88
2023-02-09T18:44:44.081Z,0.84
2023-02-09T18:47:12.207Z,0.79
2023-02-09T18:49:40.178Z,0.81
2023-02-09T18:52:09.491Z,0.82
2023-02-09T18:54:37.286Z,0.80
2023-02-09T18:57:05.161Z,0.75
2023-02-09T18:59:33.096Z,0.74
2023-02-09T19:02:00.953Z,0.72
2023-02-09T19:04:28.775Z,0.71
2023-02-09T19:06:56.997Z,0.67
2023-02-09T19:09:24.808Z,0.66
2023-02-09T19:11:52.649Z,0.64
2023-02-09T19:14:38.921Z,0.60
2023-02-09T19:17:07.967Z,0.58
2023-02-09T19:19:35.873Z,0.59
2023-02-09T19:22:03.700Z,0.60
2023-02-09T19:24:31.580Z,0.58
2023-02-09T19:26:59.336Z,0.57
2023-02-09T19:29:27.358Z,0.54
2023-02-09T19:31:56.835Z,0.53
2023-02-09T19:34:24.973Z,0.48
2023-02-09T19:36:52.747Z,0.45
2023-02-09T19:39:21.132Z,0.43
2023-02-09T19:41:50.207Z,0.39
2023-02-09T19:44:18.067Z,0.34
2023-02-09T19:46:46.704Z,0.35
2023-02-09T19:49:14.624Z,0.29
2023-02-09T19:51:42.648Z,0.29
2023-02-09T19:54:10.455Z,0.27
2023-02-09T19:56:38.573Z,0.29
2023-02-09T19:59:06.430Z,0.28
2023-02-09T20:01:34.413Z,0.27
2023-02-09T20:04:02.265Z,0.25
2023-02-09T20:06:31.052Z,0.25
2023-02-09T20:09:00.041Z,0.24
2023-02-09T20:11:28.021Z,0.20
2023-02-09T20:13:55.981Z,0.16
2023-02-09T20:16:25.602Z,0.16
2023-02-09T20:18:53.667Z,0.14
2023-02-09T20:21:22.354Z,0.12
2023-02-09T20:23:50.249Z,0.08
2023-02-09T20:26:19.766Z,0.08
2023-02-09T20:28:47.546Z,0.07
2023-02-09T20:31:19.644Z,0.05
2023-02-09T20:33:47.480Z,-0.01
2023-02-09T20:36:15.319Z,-0.11
2023-02-09T20:38:43.088Z,-0.15
2023-02-09T20:41:12.628Z,-0.08
2023-02-09T20:43:59.435Z,-0.04
2023-02-09T20:46:47.466Z,-0.03
2023-02-09T20:49:17.282Z,-0.06
2023-02-09T20:51:45.526Z,-0.07
2023-02-09T20:54:14.073Z,-0.10
2023-02-09T20:56:42.209Z,-0.12
2023-02-09T20:59:10.128Z,-0.14
2023-02-09T21:01:38.878Z,-0.19
2023-02-09T21:04:08.542Z,-0.22
2023-02-09T21:06:38.294Z,-0.21
2023-02-09T21:09:06.885Z,-0.20
2023-02-09T21:11:34.728Z,-0.20
2023-02-09T21:14:02.865Z,-0.21
2023-02-09T21:16:32.018Z,-0.21
2023-02-09T21:19:00.197Z,-0.28
2023-02-09T21:21:28.565Z,-0.30
2023-02-09T21:23:56.498Z,-0.31
2023-02-09T21:26:25.685Z,-0.37
2023-02-09T21:28:57.381Z,-0.40
2023-02-09T21:31:27.247Z,-0.47
2023-02-09T21:33:55.160Z,-0.48
2023-02-09T21:36:23.136Z,-0.50
2023-02-09T21:38:50.981Z,-0.55
2023-02-09T21:41:38.853Z,-0.52
2023-02-09T21:44:06.989Z,-0.53
2023-02-09T21:46:34.837Z,-0.56
2023-02-09T21:49:02.743Z,-0.58
2023-02-09T21:51:30.587Z,-0.65
2023-02-09T21:53:58.447Z,-0.68
2023-02-09T21:56:27.138Z,-0.71
2023-02-09T21:58:55.022Z,-0.69
2023-02-09T22:01:22.884Z,-0.70
2023-02-09T22:03:51.012Z,-0.64
2023-02-09T22:06:18.860Z,-0.62
2023-02-09T22:08:46.769Z,-0.63
2023-02-09T22:11:14.563Z,-0.66
2023-02-09T22:13:42.460Z,-0.67
2023-02-09T22:16:11.008Z,-0.67
2023-02-09T22:18:38.964Z,-0.69
2023-02-09T22:21:10.102Z,-0.71
2023-02-09T22:23:37.977Z,-0.70
2023-02-09T22:26:06.211Z,-0.74
2023-02-09T22:28:36.434Z,-0.77
2023-02-09T22:31:14.931Z,-0.75
2023-02-09T22:33:43.006Z,-0.77
2023-02-09T22:36:14.630Z,-0.78
2023-02-09T22:38:42.532Z,-0.81
2023-02-09T22:41:22.468Z,-0.84
2023-02-09T22:43:55.685Z,-0.88
2023-02-09T22:46:28.628Z,-0.91
2023-02-09T22:48:58.112Z,-0.93
2023-02-09T22:51:27.977Z,-0.94
2023-02-09T22:53:56.878Z,-0.92
2023-02-09T22:56:24.873Z,-0.94
2023-02-09T22:58:56.440Z,-0.96
2023-02-09T23:01:24.256Z,-0.98
2023-02-09T23:03:52.134Z,-0.96
2023-02-09T23:06:21.768Z,-0.98
2023-02-09T23:08:49.572Z,-0.99
2023-02-09T23:11:18.088Z,-1.02
2023-02-09T23:13:45.929Z,-1.05
2023-02-09T23:16:21.834Z,-1.05
2023-02-09T23:18:53.083Z,-1.10
2023-02-09T23:21:21.818Z,-1.11
2023-02-09T23:23:49.644Z,-1.09
2023-02-09T23:26:18.182Z,-1.07
2023-02-09T23:28:46.342Z,-1.08
2023-02-09T23:31:19.859Z,-1.11
2023-02-09T23:33:47.721Z,-1.12
2023-02-09T23:36:17.751Z,-1.13
2023-02-09T23:38:45.797Z,-1.13
2023-02-09T23:41:17.656Z,-1.18
2023-02-09T23:43:45.425Z,-1.20
2023-02-09T23:46:14.756Z,-1.27
2023-02-09T23:48:42.530Z,-1.29
2023-02-09T23:51:12.672Z,-1.33
2023-02-09T23:53:40.501Z,-1.33
2023-02-09T23:56:08.626Z,-1.30
2023-02-09T23:58:40.895Z,-1.33
